createdAt,value
2019-01-15T00:00:23.903Z,99267.20
2019-01-15T00:03:39.271Z,99263.92
2019-01-15T00:06:54.203Z,99264.98
2019-01-15T00:10:11.204Z,99267.33
2019-01-15T00:13:26.322Z,99276.56
2019-01-15T00:16:42.396Z,99283.30
2019-01-15T00:19:57.878Z,99275.34
2019-01-15T00:23:13.314Z,99272.66
2019-01-15T00:26:28.779Z,99276.95
2019-01-15T00:29:44.365Z,99278.97
2019-01-15T00:33:02.654Z,99277.52
2019-01-15T00:36:18.016Z,99279.73
2019-01-15T00:39:33.478Z,99280.44
2019-01-15T00:42:48.397Z,99288.40
2019-01-15T00:46:03.570Z,99289.12
2019-01-15T00:49:20.196Z,99292.73
2019-01-15T00:52:35.451Z,99292.73
2019-01-15T00:55:50.957Z,99289.47
2019-01-15T00:59:06.525Z,99287.70
2019-01-15T01:02:21.720Z,99290.91
2019-01-15T01:05:36.998Z,99288.75
2019-01-15T01:08:52.503Z,99294.38
2019-01-15T01:12:08.231Z,99296.72
2019-01-15T01:15:23.357Z,99298.71
2019-01-15T01:18:39.037Z,99304.34
2019-01-15T01:21:54.591Z,99319.52
2019-01-15T01:25:09.624Z,99319.52
2019-01-15T01:28:24.993Z,99319.55
2019-01-15T01:31:40.234Z,99329.67
2019-01-15T01:34:56.259Z,99328.42
2019-01-15T01:38:11.687Z,99320.83
2019-01-15T01:41:27.121Z,99326.59
2019-01-15T01:44:42.383Z,99326.95
2019-01-15T01:47:58.439Z,99325.00
2019-01-15T01:51:13.790Z,99316.70
2019-01-15T01:54:29.316Z,99313.77
2019-01-15T01:57:44.377Z,99306.90
2019-01-15T02:00:59.763Z,99306.73
2019-01-15T02:04:15.113Z,99300.95
2019-01-15T02:07:30.150Z,99306.20
2019-01-15T02:10:45.507Z,99304.38
2019-01-15T02:14:00.746Z,99298.23
2019-01-15T02:17:16.291Z,99292.45
2019-01-15T02:20:31.457Z,99300.59
2019-01-15T02:23:46.920Z,99300.38
2019-01-15T02:30:41.876Z,99304.31
2019-01-15T02:33:57.432Z,99325.13
2019-01-15T02:37:12.806Z,99337.79
2019-01-15T02:40:28.131Z,99342.33
2019-01-15T02:43:43.312Z,99346.12
2019-01-15T02:46:58.636Z,99336.16
2019-01-15T02:50:13.855Z,99338.17
2019-01-15T02:53:29.047Z,99331.09
2019-01-15T02:56:44.401Z,99320.61
2019-01-15T02:59:59.743Z,99325.86
2019-01-15T03:03:14.887Z,99331.13
2019-01-15T03:06:30.344Z,99325.33
2019-01-15T03:09:46.608Z,99328.44
2019-01-15T03:13:01.869Z,99331.50
2019-01-15T03:16:17.014Z,99321.75
2019-01-15T03:19:32.679Z,99322.66
2019-01-15T03:22:47.790Z,99319.21
2019-01-15T03:26:03.076Z,99312.14
2019-01-15T03:29:19.183Z,99318.84
2019-01-15T03:32:34.637Z,99308.37
2019-01-15T03:35:49.756Z,99306.00
2019-01-15T03:39:08.419Z,99304.20
2019-01-15T03:42:23.731Z,99305.82
2019-01-15T03:45:38.877Z,99305.12
2019-01-15T03:48:54.256Z,99303.28
2019-01-15T03:52:09.796Z,99305.28
2019-01-15T03:55:24.822Z,99293.70
2019-01-15T03:58:39.984Z,99294.44
2019-01-15T04:01:55.443Z,99287.18
2019-01-15T04:05:11.717Z,99281.03
2019-01-15T04:08:27.675Z,99271.27
2019-01-15T04:11:44.034Z,99278.13
2019-01-15T04:14:59.212Z,99277.02
2019-01-15T04:18:14.656Z,99279.04
2019-01-15T04:21:30.111Z,99285.20
2019-01-15T04:24:46.184Z,99288.59
2019-01-15T04:28:01.330Z,99302.67
2019-01-15T04:31:17.226Z,99288.17
2019-01-15T04:34:32.442Z,99293.95
2019-01-15T04:37:47.609Z,99291.95
2019-01-15T04:41:03.057Z,99291.95
2019-01-15T04:44:18.728Z,99289.97
2019-01-15T04:47:33.987Z,99282.38
2019-01-15T04:50:49.316Z,99287.41
2019-01-15T04:54:05.787Z,99290.47
2019-01-15T04:57:21.798Z,99274.40
2019-01-15T05:00:37.221Z,99265.53
2019-01-15T05:03:51.871Z,99258.11
2019-01-15T05:07:07.511Z,99264.98
2019-01-15T05:10:23.004Z,99261.85
2019-01-15T05:13:38.221Z,99262.59
2019-01-15T05:16:54.023Z,99269.67
2019-01-15T05:20:11.180Z,99256.11
2019-01-15T05:23:26.635Z,99259.56
2019-01-15T05:26:41.790Z,99255.77
2019-01-15T05:29:57.037Z,99255.89
2019-01-15T05:33:13.125Z,99254.44
2019-01-15T05:36:28.255Z,99258.95
2019-01-15T05:39:43.734Z,99271.58
2019-01-15T05:42:59.155Z,99261.48
2019-01-15T05:46:14.417Z,99251.48
2019-01-15T05:49:30.389Z,99262.37
2019-01-15T05:52:45.702Z,99262.89
2019-01-15T05:56:01.802Z,99254.77
2019-01-15T05:59:17.170Z,99246.56
2019-01-15T06:02:33.130Z,99247.80
2019-01-15T06:05:48.276Z,99249.10
2019-01-15T06:09:03.844Z,99242.34
2019-01-15T06:12:18.988Z,99246.37
2019-01-15T06:15:34.882Z,99247.35
2019-01-15T06:18:50.285Z,99247.20
2019-01-15T06:22:05.650Z,99238.03
2019-01-15T06:25:20.896Z,99241.09
2019-01-15T06:28:36.348Z,99241.30
2019-01-15T06:31:51.515Z,99241.09
2019-01-15T06:35:07.074Z,99235.31
2019-01-15T06:38:22.210Z,99242.02
2019-01-15T06:41:37.360Z,99241.80
2019-01-15T06:44:52.394Z,99236.02
2019-01-15T06:48:08.056Z,99249.95
2019-01-15T06:51:23.921Z,99241.77
2019-01-15T06:54:39.993Z,99244.82
2019-01-15T06:57:55.551Z,99246.83
2019-01-15T07:01:11.678Z,99262.00
2019-01-15T07:04:27.182Z,99269.94
2019-01-15T07:07:42.422Z,99276.61
2019-01-15T07:10:57.782Z,99280.23
2019-01-15T07:14:12.936Z,99279.45
2019-01-15T07:17:28.112Z,99280.38
2019-01-15T07:20:44.546Z,99282.58
2019-01-15T07:23:59.683Z,99287.76
2019-01-15T07:27:15.262Z,99289.73
2019-01-15T07:30:51.182Z,99281.60
2019-01-15T07:34:06.740Z,99283.06
2019-01-15T07:37:22.003Z,99294.62
2019-01-15T07:40:37.347Z,99295.06
2019-01-15T07:43:52.577Z,99289.06
2019-01-15T07:47:07.863Z,99280.75
2019-01-15T07:50:24.036Z,99275.13
2019-01-15T07:53:40.185Z,99268.03
2019-01-15T07:56:55.538Z,99267.66
2019-01-15T08:00:14.273Z,99271.80
2019-01-15T08:03:29.932Z,99284.05
2019-01-15T08:06:45.025Z,99280.02
2019-01-15T08:10:00.467Z,99271.08
2019-01-15T08:13:16.002Z,99272.41
2019-01-15T08:16:31.858Z,99274.31
2019-01-15T08:19:47.153Z,99286.06
2019-01-15T08:23:03.004Z,99292.30
2019-01-15T08:26:18.140Z,99296.61
2019-01-15T08:29:33.380Z,99294.56
2019-01-15T08:32:48.827Z,99287.41
2019-01-15T08:36:04.201Z,99298.31
2019-01-15T08:39:20.087Z,99301.70
2019-01-15T08:42:35.501Z,99302.52
2019-01-15T08:45:51.424Z,99305.44
2019-01-15T08:49:09.252Z,99298.31
2019-01-15T08:52:24.953Z,99287.70
2019-01-15T08:55:40.394Z,99295.98
2019-01-15T08:58:56.662Z,99295.95
2019-01-15T09:02:12.021Z,99290.48
2019-01-15T09:05:27.792Z,99293.64
2019-01-15T09:08:43.032Z,99290.33
2019-01-15T09:11:58.803Z,99288.28
2019-01-15T09:15:15.369Z,99283.98
2019-01-15T09:18:31.345Z,99290.52
2019-01-15T09:21:46.807Z,99290.80
2019-01-15T09:25:01.255Z,99286.89
2019-01-15T09:28:16.582Z,99291.02
2019-01-15T09:31:32.081Z,99299.92
2019-01-15T09:34:47.313Z,99295.69
2019-01-15T09:38:03.671Z,99286.70
2019-01-15T09:41:18.915Z,99290.45
2019-01-15T09:44:34.456Z,99287.70
2019-01-15T09:47:56.284Z,99286.70
2019-01-15T09:51:10.619Z,99285.66
2019-01-15T09:54:26.079Z,99290.93
2019-01-15T09:57:41.613Z,99288.50
2019-01-15T10:00:57.296Z,99290.19
2019-01-15T10:04:12.734Z,99285.27
2019-01-15T10:07:28.804Z,99284.50
2019-01-15T10:10:44.182Z,99277.81
2019-01-15T10:13:59.310Z,99278.42
2019-01-15T10:17:14.535Z,99268.84
2019-01-15T10:20:29.988Z,99259.34
2019-01-15T10:23:45.908Z,99258.69
2019-01-15T10:27:01.240Z,99255.65
2019-01-15T10:30:21.515Z,99248.25
2019-01-15T10:33:42.986Z,99244.53
2019-01-15T10:36:55.774Z,99244.63
2019-01-15T10:40:11.766Z,99232.11
2019-01-15T10:43:27.704Z,99233.22
2019-01-15T10:46:42.092Z,99229.05
2019-01-15T10:49:57.398Z,99230.08
2019-01-15T10:53:12.754Z,99223.08
2019-01-15T10:56:28.421Z,99221.80
2019-01-15T10:59:43.892Z,99220.92
2019-01-15T11:02:59.643Z,99211.48
2019-01-15T11:06:15.192Z,99214.03
2019-01-15T11:09:31.069Z,99206.47
2019-01-15T11:12:46.413Z,99205.89
2019-01-15T11:16:02.066Z,99197.77
2019-01-15T11:19:17.945Z,99200.82
2019-01-15T11:22:33.714Z,99198.45
2019-01-15T11:25:48.960Z,99200.16
2019-01-15T11:29:04.398Z,99191.75
2019-01-15T11:32:19.862Z,99181.40
2019-01-15T11:35:35.127Z,99177.87
2019-01-15T11:38:50.476Z,99174.27
2019-01-15T11:42:06.239Z,99168.55
2019-01-15T11:45:21.794Z,99164.00
2019-01-15T11:48:37.161Z,99162.36
2019-01-15T11:51:52.435Z,99157.89
2019-01-15T11:55:08.016Z,99159.98
2019-01-15T11:58:23.506Z,99157.38
2019-01-15T12:02:03.463Z,99155.40
2019-01-15T12:05:35.513Z,99152.08
2019-01-15T12:09:08.323Z,99150.34
2019-01-15T12:12:47.397Z,99147.73
2019-01-15T12:16:20.222Z,99144.34
2019-01-15T12:19:55.967Z,99138.88
2019-01-15T12:23:22.547Z,99137.32
2019-01-15T12:26:54.824Z,99134.66
2019-01-15T12:30:22.031Z,99128.23
2019-01-15T12:33:56.463Z,99124.20
2019-01-15T12:37:49.055Z,99125.09
2019-01-15T12:41:37.842Z,99129.98
2019-01-15T12:45:07.139Z,99128.89
2019-01-15T12:48:40.087Z,99130.67
2019-01-15T12:52:14.368Z,99123.91
2019-01-15T12:56:06.598Z,99125.77
2019-01-15T12:59:39.948Z,99125.65
2019-01-15T13:03:11.803Z,99120.19
2019-01-15T13:06:45.016Z,99116.25
2019-01-15T13:10:20.979Z,99116.05
2019-01-15T13:13:57.986Z,99115.44
2019-01-15T13:17:24.394Z,99111.58
2019-01-15T13:20:50.076Z,99121.05
2019-01-15T13:24:27.137Z,99114.59
2019-01-15T13:28:00.210Z,99114.78
2019-01-15T13:31:45.481Z,99112.17
2019-01-15T13:35:19.845Z,99117.13
2019-01-15T13:38:52.723Z,99112.84
2019-01-15T13:42:21.387Z,99112.81
2019-01-15T13:46:00.850Z,99107.38
2019-01-15T13:49:29.050Z,99103.41
2019-01-15T13:52:52.435Z,99103.28
2019-01-15T13:56:25.207Z,99110.30
2019-01-15T13:59:57.362Z,99104.43
2019-01-15T14:03:20.409Z,99093.98
2019-01-15T14:06:59.618Z,99104.22
2019-01-15T14:10:36.426Z,99101.06
2019-01-15T14:14:13.730Z,99101.38
2019-01-15T14:17:47.689Z,99091.74
2019-01-15T14:21:30.296Z,99092.17
2019-01-15T14:25:02.031Z,99091.72
2019-01-15T14:28:36.579Z,99086.77
2019-01-15T14:32:05.148Z,99084.48
2019-01-15T14:35:33.291Z,99078.91
2019-01-15T14:39:05.508Z,99080.09
2019-01-15T14:42:45.986Z,99077.64
2019-01-15T14:46:26.683Z,99077.10
2019-01-15T14:50:00.035Z,99071.37
2019-01-15T14:53:45.255Z,99079.20
2019-01-15T14:57:14.983Z,99065.78
2019-01-15T15:00:46.620Z,99066.61
2019-01-15T15:04:10.831Z,99072.83
2019-01-15T15:07:56.387Z,99072.32
2019-01-15T15:11:29.320Z,99072.92
2019-01-15T15:14:55.393Z,99066.39
2019-01-15T15:18:21.436Z,99069.44
2019-01-15T15:21:51.296Z,99063.84
2019-01-15T15:25:18.127Z,99066.02
2019-01-15T15:28:55.511Z,99067.40
2019-01-15T15:32:44.328Z,99076.52
2019-01-15T15:36:17.924Z,99065.02
2019-01-15T15:39:51.336Z,99064.49
2019-01-15T15:43:24.777Z,99056.03
2019-01-15T15:46:56.767Z,99055.71
2019-01-15T15:50:21.857Z,99059.84
2019-01-15T15:53:50.865Z,99052.96
2019-01-15T15:57:34.451Z,99058.95
2019-01-15T16:01:13.734Z,99052.20
2019-01-15T16:04:47.965Z,99050.70
2019-01-15T16:08:19.901Z,99054.74
2019-01-15T16:11:51.716Z,99048.23
2019-01-15T16:15:16.596Z,99057.82
2019-01-15T16:18:51.322Z,99061.27
2019-01-15T16:22:23.531Z,99057.59
2019-01-15T16:25:56.700Z,99069.36
2019-01-15T16:29:28.484Z,99058.02
2019-01-15T16:33:01.504Z,99069.19
2019-01-15T16:36:40.522Z,99064.31
2019-01-15T16:40:14.528Z,99063.64
2019-01-15T16:43:57.557Z,99071.06
2019-01-15T16:47:18.953Z,99073.34
2019-01-15T16:50:42.224Z,99064.27
2019-01-15T16:54:19.793Z,99057.23
2019-01-15T16:58:11.495Z,99063.58
2019-01-15T17:01:56.612Z,99063.00
2019-01-15T17:05:45.105Z,99057.91
2019-01-15T17:09:18.319Z,99054.80
2019-01-15T17:12:53.348Z,99055.56
2019-01-15T17:16:33.313Z,99063.12
2019-01-15T17:20:00.242Z,99055.04
2019-01-15T17:23:32.486Z,99061.64
2019-01-15T17:27:17.742Z,99055.87
2019-01-15T17:30:44.343Z,99053.67
2019-01-15T17:34:34.195Z,99058.42
2019-01-15T17:38:10.055Z,99054.23
2019-01-15T17:41:46.098Z,99054.23
2019-01-15T17:45:19.128Z,99055.03
2019-01-15T17:49:01.424Z,99057.68
2019-01-15T17:52:34.793Z,99060.12
2019-01-15T17:56:02.193Z,99058.34
2019-01-15T17:59:41.710Z,99054.81
2019-01-15T18:03:10.920Z,99050.77
2019-01-15T18:06:40.127Z,99059.11
2019-01-15T18:10:12.001Z,99054.02
2019-01-15T18:14:01.650Z,99061.11
2019-01-15T18:17:37.918Z,99063.15
2019-01-15T18:21:14.989Z,99068.14
2019-01-15T18:24:57.402Z,99061.41
2019-01-15T18:28:30.250Z,99069.59
2019-01-15T18:32:04.470Z,99067.55
2019-01-15T18:35:50.478Z,99074.07
2019-01-15T18:39:24.730Z,99076.94
2019-01-15T18:43:14.850Z,99073.18
2019-01-15T18:46:57.863Z,99069.41
2019-01-15T18:50:25.892Z,99074.44
2019-01-15T18:54:08.444Z,99074.83
2019-01-15T18:57:50.715Z,99072.80
2019-01-15T19:01:33.402Z,99073.03
2019-01-15T19:05:15.692Z,99073.23
2019-01-15T19:08:52.971Z,99064.39
2019-01-15T19:12:32.051Z,99066.86
2019-01-15T19:16:05.063Z,99064.02
2019-01-15T19:19:47.602Z,99059.16
2019-01-15T19:23:28.333Z,99056.61
2019-01-15T19:27:07.688Z,99053.85
2019-01-15T19:30:41.130Z,99052.05
2019-01-15T19:34:13.113Z,99055.18
2019-01-15T19:37:46.355Z,99052.05
2019-01-15T19:41:25.521Z,99058.09
2019-01-15T19:45:11.642Z,99065.23
2019-01-15T19:48:41.074Z,99059.55
2019-01-15T19:52:14.640Z,99054.45
2019-01-15T19:55:43.940Z,99059.08
2019-01-15T19:59:18.889Z,99061.70
2019-01-15T20:02:45.720Z,99055.13
2019-01-15T20:06:18.689Z,99048.47
2019-01-15T20:09:51.116Z,99052.86
2019-01-15T20:13:27.138Z,99059.30
2019-01-15T20:17:18.236Z,99049.33
2019-01-15T20:20:53.840Z,99053.69
2019-01-15T20:24:26.911Z,99050.62
2019-01-15T20:27:59.788Z,99042.38
2019-01-15T20:31:45.373Z,99042.44
2019-01-15T20:35:16.572Z,99038.80
2019-01-15T20:38:49.722Z,99042.45
2019-01-15T20:42:17.528Z,99045.36
2019-01-15T20:45:59.881Z,99049.03
2019-01-15T20:49:31.716Z,99050.23
2019-01-15T20:53:04.872Z,99040.63
2019-01-15T20:56:42.394Z,99035.80
2019-01-15T21:00:10.475Z,99036.83
2019-01-15T21:03:52.590Z,99042.98
2019-01-15T21:07:32.401Z,99037.29
2019-01-15T21:11:04.445Z,99038.64
2019-01-15T21:14:37.584Z,99035.54
2019-01-15T21:18:10.273Z,99042.88
2019-01-15T21:21:54.088Z,99040.92
2019-01-15T21:25:37.606Z,99044.30
2019-01-15T21:29:14.806Z,99038.34
2019-01-15T21:33:00.279Z,99046.09
2019-01-15T21:36:33.335Z,99039.14
2019-01-15T21:40:15.319Z,99041.25
2019-01-15T21:43:42.817Z,99031.63
2019-01-15T21:47:29.246Z,99026.27
2019-01-15T21:50:55.784Z,99032.25
2019-01-15T21:54:37.788Z,99034.64
2019-01-15T21:58:14.804Z,99031.09
2019-01-15T22:01:40.395Z,99032.44
2019-01-15T22:05:17.587Z,99028.95
2019-01-15T22:08:49.411Z,99020.11
2019-01-15T22:12:16.391Z,99025.35
2019-01-15T22:15:48.296Z,99027.22
2019-01-15T22:19:28.373Z,99030.66
2019-01-15T22:23:00.422Z,99028.11
2019-01-15T22:26:28.115Z,99018.22
2019-01-15T22:29:58.279Z,99015.29
2019-01-15T22:33:30.895Z,99016.20
2019-01-15T22:37:04.636Z,99004.40
2019-01-15T22:40:43.707Z,98996.91
2019-01-15T22:44:20.120Z,98999.12
2019-01-15T22:47:55.070Z,98996.58
2019-01-15T22:51:26.502Z,98995.42
2019-01-15T22:55:06.960Z,98998.77
2019-01-15T22:58:59.829Z,98993.81
2019-01-15T23:06:18.814Z,98989.55
2019-01-15T23:09:41.651Z,98986.25
2019-01-15T23:13:17.759Z,98983.49
2019-01-15T23:16:56.807Z,98978.91
2019-01-15T23:20:27.365Z,98976.44
2019-01-15T23:24:01.055Z,98978.98
2019-01-15T23:27:31.640Z,98978.50
2019-01-15T23:31:03.551Z,98975.45
2019-01-15T23:34:28.778Z,98976.50
2019-01-15T23:38:03.313Z,98974.17
2019-01-15T23:41:35.228Z,98972.95
2019-01-15T23:45:15.370Z,98967.38
2019-01-15T23:48:58.259Z,98973.13
2019-01-15T23:52:31.339Z,98966.09
2019-01-15T23:56:03.262Z,98956.69
2019-01-15T23:59:39.796Z,98954.05
